SBPLSBAR

Guest
Details From SBPL - SENADOR NILO COELHO
To SBAR - SANTA MARIA
Flight Number -
Tags generated
Created
Modified
Stats Distance 256 nm / 475 km
Max Altitude 23,500 ft / 7,163 m
Waypoints 5
Social Downloads 0
Likes 0
Share VATSIM

Download

Looking for another format? Having issues loading an existing format? Contact us
Advertisement - Login to hide

Notes

Basic altitude profile: - Ascent Rate: 2500ft/min - Ascent Speed: 250kts - Cruise Altitude: 35000ft - Cruise Speed: 420kts - Descent Rate: 1500ft/min - Descent Speed: 250kts Options: - Use NATs: yes - Use PACOTS: yes - Use low airways: yes - Use high airways: yes

Route

SBPL PTL W8 PAF GEBIT SBAR

ID Type Via Altitude Latitude Longitude Leg Dist Tot Dist Heading (true) Name
O SBPL APT - 0 ft / 0 m -9.36241˚ -40.56910˚ - 0 nm - SENADOR NILO COELHO
PTL VOR - 100 ft / 30 m -9.36317˚ -40.56133˚ 0 nm 0 nm 96° / 96° PETROLINA VOR-DME
PAF VOR W8 (AWY-LO) 23,500 ft / 7,163 m -9.40200˚ -38.25283˚ 136 nm 137 nm 91° / 91° PAULO AFONSO VOR
GEBIT FIX - 15,700 ft / 4,785 m -10.01383˚ -37.95700˚ 40 nm 177 nm 155° / 154° -
O SBAR APT - 0 ft / 0 m -10.98400˚ -37.07033˚ 78 nm 256 nm 138° / 138° SANTA MARIA

Altitude Profile

Advertisement - Login to hide

Weather


0- 5 10 15 20 25 30 35+ Temperature / ° C

Clouds and Precipitation
Forecast for 2017-12-17 12:00 UTC. Updated an hour ago

Ground ~20,000 ft ~40,000 ft Winds

SBPL

Details ICAO SBPL (PNZ)
Name SENADOR NILO COELHO
Region Brazil
Timezone America/Recife (UTC-3.0)
Stats Elevation 1,263 ft / 385 m (AMSL)
Location -9.362412° -40.569099°
Runways 1
Magnetic Variation 22.596° W

METAR

SBPL 170800Z 13010KT CAVOK 25/18 Q1013

Decode

TAF

TAF SBPL 170300Z 1706/1806 14008KT 9999 SCT030 TN24/1707Z TX34/1718Z BECMG 1721/1723 CAVOK RMK PEU

Decode

Departure Runways

ID Width Length Bearing (true) Bearing (mag) Surface Threshold Offset Overrun Length
13 140 ft / 43 m 10,642 ft / 3,244 m 109.17° 131.77° Asphalt 1,605 ft / 489 m 0 ft / 0 m
31 140 ft / 43 m 10,642 ft / 3,244 m 289.16° 311.76° Asphalt 0 ft / 0 m 0 ft / 0 m

SBAR

Details ICAO SBAR (AJU)
Name SANTA MARIA
Region Brazil
Timezone America/Maceio (UTC-3.0)
Stats Elevation 23 ft / 7 m (AMSL)
Location -10.984000° -37.070333°
Runways 1
Magnetic Variation 23.050° W

METAR

SBAR 170800Z 08004KT 9999 SCT015 24/23 Q1013

Decode

TAF

TAF SBAR 170300Z 1706/1718 09007KT 9999 SCT017 TN25/1707Z TX29/1715Z BECMG 1712/1713 10012KT RMK PEU

Decode

Destination Runways

ID Width Length Bearing (true) Bearing (mag) Surface Threshold Offset Overrun Length
11 148 ft / 45 m 7,228 ft / 2,203 m 91.93° 114.98° Asphalt 0 ft / 0 m 200 ft / 61 m
29 148 ft / 45 m 7,228 ft / 2,203 m 271.92° 294.97° Asphalt 0 ft / 0 m 200 ft / 61 m